KBGM/BGM METAR and TAF weather

Enter ICAO airport designator
Station Type Date Time Source
KBGM METAR 2019/12/06 03:53 UTC NOAA

KBGM 060353Z 29006KT 10SM BKN029 BKN034 M04/M07 A2999 RMK AO2 SLP177 T10391067


Station Type Date Time Source
KBGM Decoded METAR 2019/12/06 03:53 UTC NOAA

BINGHAMTON REGIONAL AIRPORT, NY, United States (KBGM) 42-12N 75-59W 492M
Dec 05, 2019 - 10:53 PM EST / 2019.12.06 0353 UTC
Wind: from the WNW (290 degrees) at 7 MPH (6 KT):0
Visibility: 10 mile(s):0
Sky conditions: mostly cloudy
Temperature: 25.0 F (-3.9 C)
Windchill: 17 F (-8 C):1
Dew Point: 19.9 F (-6.7 C)
Relative Humidity: 80%
Pressure (altimeter): 29.99 in. Hg (1015 hPa)
ob: KBGM 060353Z 29006KT 10SM BKN029 BKN034 M04/M07 A2999 RMK AO2 SLP177 T10391067
cycle: 4

Station Type Date Time Source
KBGM TAF 2019/12/06 03:18 UTC NOAA

TAF
AMD KBGM 060315Z 0603/0624 29007KT P6SM SCT025 OVC040
FM060600 22006KT P6SM OVC040
FM061200 19008KT 5SM -SN BR SCT025 OVC040
FM061500 22010G18KT 2SM -SN BR OVC015
FM061800 25012G20KT 1 1/2SM -SN BR OVC007
FM062200 30010G18KT 4SM -SN BR SCT007 OVC012

Example: see airport list